UPCS205 UAAA-UAAH
Flight info
| Callsign | UPCS205 |
|---|---|
| Flight time | 1h 37m |
| Altitude | FL180 |
| Route | ETEDA W333 TULPI |
| Aircraft | C414/L-SBDFGRY/S |
Departure
| Time | 2026-04-28 16:03 |
|---|---|
| Airport | Almaty International Airport (UAAA) |
Arrival
| Time | 2026-04-28 17:40 |
|---|---|
| Airport | Balkhash Airport (UAAH) |
| Time | Latitude | Longitude | Altitude | Speed | Heading |
|---|---|---|---|---|---|
| 2026-04-28 15:53 | 43.34273 | 77.01413 | 2218 ft | 0 kts | 246° |
| 2026-04-28 15:57 | 43.34267 | 77.01395 | 2218 ft | 6 kts | 241° |
| 2026-04-28 15:57 | 43.34247 | 77.01391 | 2221 ft | 4 kts | 153° |
| 2026-04-28 15:57 | 43.34243 | 77.01431 | 2221 ft | 6 kts | 69° |
| 2026-04-28 15:57 | 43.34263 | 77.01494 | 2221 ft | 9 kts | 65° |
| 2026-04-28 15:58 | 43.34296 | 77.01593 | 2221 ft | 13 kts | 66° |
| 2026-04-28 15:58 | 43.34353 | 77.01610 | 2219 ft | 13 kts | 336° |
| 2026-04-28 15:58 | 43.34445 | 77.01556 | 2220 ft | 15 kts | 336° |
| 2026-04-28 15:58 | 43.34541 | 77.01497 | 2219 ft | 9 kts | 334° |
| 2026-04-28 15:59 | 43.34618 | 77.01467 | 2220 ft | 14 kts | 355° |
| 2026-04-28 15:59 | 43.34678 | 77.01442 | 2220 ft | 13 kts | 347° |
| 2026-04-28 15:59 | 43.34810 | 77.01487 | 2220 ft | 15 kts | 37° |
| 2026-04-28 15:59 | 43.34813 | 77.01607 | 2220 ft | 15 kts | 94° |
| 2026-04-28 16:00 | 43.34805 | 77.01772 | 2220 ft | 19 kts | 95° |
| 2026-04-28 16:00 | 43.34796 | 77.01936 | 2221 ft | 16 kts | 94° |
| 2026-04-28 16:00 | 43.34790 | 77.02071 | 2221 ft | 16 kts | 94° |
| 2026-04-28 16:00 | 43.34782 | 77.02235 | 2222 ft | 19 kts | 93° |
| 2026-04-28 16:01 | 43.34772 | 77.02415 | 2227 ft | 19 kts | 93° |
| 2026-04-28 16:01 | 43.34768 | 77.02608 | 2229 ft | 23 kts | 88° |
| 2026-04-28 16:01 | 43.34777 | 77.02856 | 2226 ft | 29 kts | 88° |
| 2026-04-28 16:01 | 43.34760 | 77.03011 | 2225 ft | 16 kts | 197° |
| 2026-04-28 16:02 | 43.34747 | 77.02998 | 2225 ft | 0 kts | 238° |
| 2026-04-28 16:02 | 43.34639 | 77.02778 | 2225 ft | 55 kts | 236° |
| 2026-04-28 16:02 | 43.34337 | 77.02164 | 2272 ft | 93 kts | 236° |
| 2026-04-28 16:02 | 43.33981 | 77.01343 | 2466 ft | 108 kts | 238° |
| 2026-04-28 16:03 | 43.33563 | 77.00409 | 2680 ft | 122 kts | 237° |
| 2026-04-28 16:03 | 43.33088 | 76.99379 | 2909 ft | 134 kts | 237° |
| 2026-04-28 16:03 | 43.32571 | 76.98278 | 3131 ft | 144 kts | 237° |
| 2026-04-28 16:03 | 43.32006 | 76.97082 | 3345 ft | 152 kts | 237° |
| 2026-04-28 16:04 | 43.31419 | 76.95841 | 3540 ft | 158 kts | 238° |
| 2026-04-28 16:04 | 43.31148 | 76.94425 | 3807 ft | 154 kts | 280° |
| 2026-04-28 16:04 | 43.31612 | 76.93187 | 4128 ft | 145 kts | 318° |
| 2026-04-28 16:04 | 43.32156 | 76.92680 | 4340 ft | 140 kts | 330° |
| 2026-04-28 16:05 | 43.33235 | 76.91750 | 4763 ft | 135 kts | 329° |
| 2026-04-28 16:05 | 43.34028 | 76.91075 | 5065 ft | 134 kts | 329° |
| 2026-04-28 16:05 | 43.34815 | 76.90407 | 5368 ft | 133 kts | 330° |
| 2026-04-28 16:05 | 43.35614 | 76.89730 | 5610 ft | 137 kts | 329° |
| 2026-04-28 16:06 | 43.36433 | 76.89036 | 5861 ft | 140 kts | 329° |
| 2026-04-28 16:06 | 43.37267 | 76.88329 | 6116 ft | 143 kts | 329° |
| 2026-04-28 16:06 | 43.38116 | 76.87608 | 6375 ft | 145 kts | 329° |
| 2026-04-28 16:06 | 43.38689 | 76.87120 | 6529 ft | 147 kts | 330° |
| 2026-04-28 16:07 | 43.39853 | 76.86130 | 6835 ft | 149 kts | 329° |
| 2026-04-28 16:07 | 43.40740 | 76.85375 | 7070 ft | 151 kts | 329° |
| 2026-04-28 16:07 | 43.42543 | 76.83841 | 7569 ft | 154 kts | 329° |
| 2026-04-28 16:08 | 43.43455 | 76.83063 | 7816 ft | 155 kts | 329° |
| 2026-04-28 16:08 | 43.44375 | 76.82280 | 8064 ft | 156 kts | 330° |
| 2026-04-28 16:08 | 43.45299 | 76.81486 | 8313 ft | 157 kts | 327° |
| 2026-04-28 16:09 | 43.46419 | 76.78954 | 8811 ft | 159 kts | 293° |
| 2026-04-28 16:09 | 43.46841 | 76.77551 | 9066 ft | 159 kts | 293° |
| 2026-04-28 16:09 | 43.47120 | 76.76613 | 9238 ft | 159 kts | 293° |
| 2026-04-28 16:10 | 43.48094 | 76.73318 | 9842 ft | 160 kts | 293° |
| 2026-04-28 16:10 | 43.48511 | 76.71908 | 10086 ft | 160 kts | 293° |
| 2026-04-28 16:10 | 43.49346 | 76.69080 | 10556 ft | 160 kts | 293° |
| 2026-04-28 16:11 | 43.50182 | 76.66251 | 11038 ft | 159 kts | 293° |
| 2026-04-28 16:11 | 43.51010 | 76.63436 | 11528 ft | 158 kts | 293° |
| 2026-04-28 16:12 | 43.51836 | 76.60634 | 12023 ft | 158 kts | 293° |
| 2026-04-28 16:12 | 43.52246 | 76.59240 | 12268 ft | 158 kts | 293° |
| 2026-04-28 16:13 | 43.53365 | 76.56723 | 12770 ft | 156 kts | 325° |
| 2026-04-28 16:13 | 43.54362 | 76.56164 | 13030 ft | 156 kts | 347° |
| 2026-04-28 16:13 | 43.56476 | 76.55487 | 13550 ft | 156 kts | 345° |
| 2026-04-28 16:14 | 43.58589 | 76.54812 | 14047 ft | 156 kts | 345° |
| 2026-04-28 16:14 | 43.60698 | 76.54137 | 14513 ft | 156 kts | 345° |
| 2026-04-28 16:15 | 43.62800 | 76.53464 | 14988 ft | 155 kts | 345° |
| 2026-04-28 16:15 | 43.63853 | 76.53127 | 15226 ft | 155 kts | 345° |
| 2026-04-28 16:15 | 43.64900 | 76.52791 | 15471 ft | 155 kts | 345° |
| 2026-04-28 16:16 | 43.66994 | 76.52119 | 15960 ft | 155 kts | 345° |
| 2026-04-28 16:16 | 43.68036 | 76.51785 | 16206 ft | 154 kts | 345° |
| 2026-04-28 16:17 | 43.70119 | 76.51116 | 16706 ft | 153 kts | 345° |
| 2026-04-28 16:17 | 43.71155 | 76.50783 | 16959 ft | 153 kts | 344° |
| 2026-04-28 16:17 | 43.72193 | 76.50450 | 17212 ft | 153 kts | 344° |
| 2026-04-28 16:17 | 43.73227 | 76.50117 | 17470 ft | 153 kts | 345° |
| 2026-04-28 16:18 | 43.74259 | 76.49785 | 17732 ft | 152 kts | 345° |
| 2026-04-28 16:18 | 43.75289 | 76.49454 | 17992 ft | 152 kts | 344° |
| 2026-04-28 16:18 | 43.76352 | 76.49111 | 18072 ft | 164 kts | 345° |
| 2026-04-28 16:18 | 43.77498 | 76.48743 | 18074 ft | 175 kts | 345° |
| 2026-04-28 16:19 | 43.78697 | 76.48359 | 18080 ft | 179 kts | 345° |
| 2026-04-28 16:19 | 43.79914 | 76.47967 | 18074 ft | 180 kts | 345° |
| 2026-04-28 16:19 | 43.81137 | 76.47573 | 18077 ft | 181 kts | 345° |
| 2026-04-28 16:19 | 43.82365 | 76.47178 | 18074 ft | 182 kts | 345° |
| 2026-04-28 16:20 | 43.83599 | 76.46779 | 18073 ft | 183 kts | 345° |
| 2026-04-28 16:20 | 43.84425 | 76.46514 | 18074 ft | 183 kts | 345° |
| 2026-04-28 16:20 | 43.86076 | 76.45980 | 18072 ft | 183 kts | 345° |
| 2026-04-28 16:20 | 43.87317 | 76.45579 | 18073 ft | 184 kts | 345° |
| 2026-04-28 16:21 | 43.88557 | 76.45179 | 18073 ft | 184 kts | 345° |
| 2026-04-28 16:21 | 43.89800 | 76.44777 | 18079 ft | 184 kts | 345° |
| 2026-04-28 16:21 | 43.91043 | 76.44375 | 18073 ft | 184 kts | 345° |
| 2026-04-28 16:21 | 43.92287 | 76.43972 | 18077 ft | 184 kts | 345° |
| 2026-04-28 16:22 | 43.93533 | 76.43569 | 18077 ft | 184 kts | 345° |
| 2026-04-28 16:22 | 43.94779 | 76.43166 | 18078 ft | 184 kts | 345° |
| 2026-04-28 16:22 | 43.96023 | 76.42763 | 18076 ft | 184 kts | 345° |
| 2026-04-28 16:22 | 43.97270 | 76.42359 | 18084 ft | 184 kts | 345° |
| 2026-04-28 16:23 | 43.98517 | 76.41954 | 18075 ft | 184 kts | 345° |
| 2026-04-28 16:23 | 43.99347 | 76.41685 | 18080 ft | 184 kts | 345° |
| 2026-04-28 16:23 | 44.01011 | 76.41145 | 18085 ft | 185 kts | 345° |
| 2026-04-28 16:23 | 44.02258 | 76.40741 | 18073 ft | 184 kts | 345° |
| 2026-04-28 16:24 | 44.03089 | 76.40471 | 18073 ft | 184 kts | 345° |
| 2026-04-28 16:24 | 44.04749 | 76.39931 | 18078 ft | 184 kts | 345° |
| 2026-04-28 16:24 | 44.05991 | 76.39528 | 18073 ft | 184 kts | 345° |
| 2026-04-28 16:24 | 44.07253 | 76.39244 | 18072 ft | 185 kts | 359° |
| 2026-04-28 16:25 | 44.08508 | 76.39657 | 18072 ft | 189 kts | 18° |
| 2026-04-28 16:25 | 44.09728 | 76.40327 | 18078 ft | 189 kts | 18° |
| 2026-04-28 16:25 | 44.10948 | 76.40984 | 18072 ft | 189 kts | 18° |
| 2026-04-28 16:25 | 44.12171 | 76.41645 | 18073 ft | 189 kts | 18° |
| 2026-04-28 16:26 | 44.13392 | 76.42306 | 18074 ft | 189 kts | 18° |
| 2026-04-28 16:26 | 44.14615 | 76.42968 | 18074 ft | 189 kts | 18° |
| 2026-04-28 16:26 | 44.15837 | 76.43630 | 18072 ft | 189 kts | 18° |
| 2026-04-28 16:26 | 44.17064 | 76.44295 | 18072 ft | 189 kts | 18° |
| 2026-04-28 16:27 | 44.18284 | 76.44955 | 18073 ft | 189 kts | 18° |
| 2026-04-28 16:27 | 44.19509 | 76.45620 | 18080 ft | 189 kts | 18° |
| 2026-04-28 16:27 | 44.21961 | 76.46949 | 18073 ft | 189 kts | 18° |
| 2026-04-28 16:28 | 44.23186 | 76.47614 | 18073 ft | 189 kts | 18° |
| 2026-04-28 16:28 | 44.24003 | 76.48058 | 18072 ft | 189 kts | 18° |
| 2026-04-28 16:28 | 44.25639 | 76.48947 | 18070 ft | 190 kts | 18° |
| 2026-04-28 16:28 | 44.26866 | 76.49614 | 18070 ft | 190 kts | 18° |
| 2026-04-28 16:29 | 44.29318 | 76.50948 | 18072 ft | 190 kts | 18° |
| 2026-04-28 16:29 | 44.31770 | 76.52283 | 18072 ft | 190 kts | 18° |
| 2026-04-28 16:30 | 44.32998 | 76.52941 | 18069 ft | 189 kts | 14° |
| 2026-04-28 16:30 | 44.34274 | 76.53126 | 18067 ft | 184 kts | 351° |
| 2026-04-28 16:30 | 44.35487 | 76.52634 | 18068 ft | 182 kts | 335° |
| 2026-04-28 16:30 | 44.36651 | 76.51949 | 18070 ft | 182 kts | 336° |
| 2026-04-28 16:31 | 44.37820 | 76.51275 | 18075 ft | 182 kts | 336° |
| 2026-04-28 16:31 | 44.38989 | 76.50594 | 18076 ft | 183 kts | 336° |
| 2026-04-28 16:31 | 44.40156 | 76.49912 | 18077 ft | 183 kts | 336° |
| 2026-04-28 16:31 | 44.41328 | 76.49227 | 18076 ft | 183 kts | 336° |
| 2026-04-28 16:32 | 44.42108 | 76.48772 | 18078 ft | 183 kts | 336° |
| 2026-04-28 16:32 | 44.44449 | 76.47404 | 18077 ft | 183 kts | 336° |
| 2026-04-28 16:32 | 44.45621 | 76.46719 | 18077 ft | 183 kts | 336° |
| 2026-04-28 16:33 | 44.47183 | 76.45805 | 18077 ft | 183 kts | 336° |
| 2026-04-28 16:33 | 44.47573 | 76.45577 | 18075 ft | 183 kts | 336° |
| 2026-04-28 16:33 | 44.49527 | 76.44433 | 18076 ft | 183 kts | 336° |
| 2026-04-28 16:33 | 44.50698 | 76.43747 | 18077 ft | 183 kts | 336° |
| 2026-04-28 16:34 | 44.51872 | 76.43059 | 18076 ft | 183 kts | 336° |
| 2026-04-28 16:34 | 44.53044 | 76.42372 | 18075 ft | 183 kts | 336° |
| 2026-04-28 16:34 | 44.54213 | 76.41686 | 18076 ft | 183 kts | 336° |
| 2026-04-28 16:34 | 44.54994 | 76.41228 | 18075 ft | 183 kts | 336° |
| 2026-04-28 16:35 | 44.56555 | 76.40312 | 18077 ft | 183 kts | 336° |
| 2026-04-28 16:35 | 44.57725 | 76.39624 | 18080 ft | 183 kts | 336° |
| 2026-04-28 16:35 | 44.58895 | 76.38937 | 18081 ft | 183 kts | 336° |
| 2026-04-28 16:35 | 44.60064 | 76.38250 | 18082 ft | 183 kts | 336° |
| 2026-04-28 16:36 | 44.61237 | 76.37560 | 18082 ft | 183 kts | 336° |
| 2026-04-28 16:36 | 44.62408 | 76.36871 | 18083 ft | 183 kts | 336° |
| 2026-04-28 16:36 | 44.63579 | 76.36181 | 18081 ft | 183 kts | 336° |
| 2026-04-28 16:36 | 44.64750 | 76.35492 | 18085 ft | 183 kts | 336° |
| 2026-04-28 16:37 | 44.65924 | 76.34800 | 18084 ft | 183 kts | 336° |
| 2026-04-28 16:37 | 44.67093 | 76.34111 | 18085 ft | 183 kts | 336° |
| 2026-04-28 16:37 | 44.67876 | 76.33650 | 18083 ft | 183 kts | 336° |
| 2026-04-28 16:38 | 44.70605 | 76.32039 | 18085 ft | 183 kts | 336° |
| 2026-04-28 16:38 | 44.71776 | 76.31349 | 18088 ft | 183 kts | 336° |
| 2026-04-28 16:38 | 44.72948 | 76.30660 | 18089 ft | 183 kts | 336° |
| 2026-04-28 16:38 | 44.74116 | 76.29972 | 18090 ft | 183 kts | 336° |
| 2026-04-28 16:39 | 44.74895 | 76.29512 | 18090 ft | 183 kts | 336° |
| 2026-04-28 16:39 | 44.76457 | 76.28591 | 18087 ft | 183 kts | 337° |
| 2026-04-28 16:39 | 44.77632 | 76.27899 | 18087 ft | 183 kts | 337° |
| 2026-04-28 16:39 | 44.78804 | 76.27207 | 18089 ft | 183 kts | 337° |
| 2026-04-28 16:40 | 44.79976 | 76.26515 | 18090 ft | 183 kts | 337° |
| 2026-04-28 16:40 | 44.81146 | 76.25824 | 18090 ft | 183 kts | 337° |
| 2026-04-28 16:40 | 44.82317 | 76.25131 | 18090 ft | 183 kts | 337° |
| 2026-04-28 16:40 | 44.83488 | 76.24439 | 18090 ft | 183 kts | 337° |
| 2026-04-28 16:41 | 44.84659 | 76.23746 | 18090 ft | 183 kts | 337° |
| 2026-04-28 16:41 | 44.85830 | 76.23054 | 18090 ft | 183 kts | 336° |
| 2026-04-28 16:41 | 44.86998 | 76.22362 | 18096 ft | 183 kts | 337° |
| 2026-04-28 16:41 | 44.88170 | 76.21668 | 18095 ft | 183 kts | 337° |
| 2026-04-28 16:42 | 44.89342 | 76.20974 | 18096 ft | 183 kts | 337° |
| 2026-04-28 16:42 | 44.90511 | 76.20281 | 18096 ft | 183 kts | 337° |
| 2026-04-28 16:42 | 44.91294 | 76.19816 | 18096 ft | 183 kts | 336° |
| 2026-04-28 16:42 | 44.92855 | 76.18891 | 18096 ft | 183 kts | 336° |
| 2026-04-28 16:43 | 44.94026 | 76.18195 | 18100 ft | 183 kts | 337° |
| 2026-04-28 16:43 | 44.95199 | 76.17499 | 18100 ft | 183 kts | 337° |
| 2026-04-28 16:43 | 44.96371 | 76.16802 | 18100 ft | 183 kts | 337° |
| 2026-04-28 16:43 | 44.97543 | 76.16106 | 18100 ft | 183 kts | 337° |
| 2026-04-28 16:44 | 44.98715 | 76.15409 | 18100 ft | 183 kts | 337° |
| 2026-04-28 16:44 | 44.99884 | 76.14713 | 18100 ft | 183 kts | 337° |
| 2026-04-28 16:44 | 45.01058 | 76.14015 | 18102 ft | 183 kts | 337° |
| 2026-04-28 16:44 | 45.02228 | 76.13318 | 18103 ft | 183 kts | 337° |
| 2026-04-28 16:45 | 45.03399 | 76.12620 | 18103 ft | 183 kts | 337° |
| 2026-04-28 16:45 | 45.04572 | 76.11922 | 18103 ft | 183 kts | 337° |
| 2026-04-28 16:45 | 45.05742 | 76.11223 | 18103 ft | 183 kts | 337° |
| 2026-04-28 16:45 | 45.06912 | 76.10526 | 18103 ft | 183 kts | 337° |
| 2026-04-28 16:46 | 45.08081 | 76.09828 | 18106 ft | 183 kts | 337° |
| 2026-04-28 16:46 | 45.09253 | 76.09128 | 18105 ft | 183 kts | 337° |
| 2026-04-28 16:46 | 45.10423 | 76.08430 | 18106 ft | 183 kts | 337° |
| 2026-04-28 16:46 | 45.11592 | 76.07731 | 18106 ft | 183 kts | 337° |
| 2026-04-28 16:47 | 45.12372 | 76.07265 | 18104 ft | 183 kts | 337° |
| 2026-04-28 16:47 | 45.13933 | 76.06331 | 18105 ft | 183 kts | 337° |
| 2026-04-28 16:47 | 45.14714 | 76.05864 | 18105 ft | 183 kts | 337° |
| 2026-04-28 16:47 | 45.16276 | 76.04929 | 18108 ft | 183 kts | 337° |
| 2026-04-28 16:48 | 45.17450 | 76.04226 | 18108 ft | 183 kts | 337° |
| 2026-04-28 16:48 | 45.18623 | 76.03523 | 18109 ft | 183 kts | 337° |
| 2026-04-28 16:48 | 45.19797 | 76.02819 | 18109 ft | 184 kts | 337° |
| 2026-04-28 16:48 | 45.20971 | 76.02116 | 18109 ft | 184 kts | 337° |
| 2026-04-28 16:49 | 45.22145 | 76.01411 | 18109 ft | 184 kts | 337° |
| 2026-04-28 16:49 | 45.23319 | 76.00706 | 18112 ft | 184 kts | 337° |
| 2026-04-28 16:49 | 45.24492 | 76.00002 | 18112 ft | 184 kts | 337° |
| 2026-04-28 16:49 | 45.25666 | 75.99297 | 18111 ft | 183 kts | 337° |
| 2026-04-28 16:50 | 45.26837 | 75.98593 | 18112 ft | 184 kts | 337° |
| 2026-04-28 16:50 | 45.28011 | 75.97887 | 18111 ft | 184 kts | 337° |
| 2026-04-28 16:50 | 45.29185 | 75.97180 | 18112 ft | 184 kts | 337° |
| 2026-04-28 16:50 | 45.30359 | 75.96474 | 18114 ft | 184 kts | 337° |
| 2026-04-28 16:51 | 45.31534 | 75.95766 | 18114 ft | 184 kts | 337° |
| 2026-04-28 16:51 | 45.32708 | 75.95060 | 18109 ft | 184 kts | 337° |
| 2026-04-28 16:51 | 45.33492 | 75.94586 | 18106 ft | 184 kts | 337° |
| 2026-04-28 16:51 | 45.35059 | 75.93642 | 18108 ft | 184 kts | 337° |
| 2026-04-28 16:52 | 45.36238 | 75.92931 | 18108 ft | 184 kts | 337° |
| 2026-04-28 16:52 | 45.37414 | 75.92221 | 18107 ft | 184 kts | 337° |
| 2026-04-28 16:52 | 45.38593 | 75.91510 | 18110 ft | 184 kts | 337° |
| 2026-04-28 16:52 | 45.39767 | 75.90800 | 18109 ft | 184 kts | 337° |
| 2026-04-28 16:53 | 45.40552 | 75.90326 | 18111 ft | 184 kts | 337° |
| 2026-04-28 16:53 | 45.42123 | 75.89376 | 18110 ft | 184 kts | 337° |
| 2026-04-28 16:53 | 45.43301 | 75.88663 | 18110 ft | 184 kts | 337° |
| 2026-04-28 16:53 | 45.44478 | 75.87951 | 18111 ft | 184 kts | 337° |
| 2026-04-28 16:54 | 45.45657 | 75.87238 | 18114 ft | 184 kts | 337° |
| 2026-04-28 16:54 | 45.46835 | 75.86524 | 18113 ft | 184 kts | 337° |
| 2026-04-28 16:54 | 45.48015 | 75.85809 | 18114 ft | 184 kts | 337° |
| 2026-04-28 16:54 | 45.48798 | 75.85334 | 18114 ft | 184 kts | 337° |
| 2026-04-28 16:55 | 45.50370 | 75.84381 | 18113 ft | 185 kts | 337° |
| 2026-04-28 16:55 | 45.51548 | 75.83666 | 18113 ft | 185 kts | 337° |
| 2026-04-28 16:55 | 45.52728 | 75.82949 | 18116 ft | 185 kts | 337° |
| 2026-04-28 16:55 | 45.53908 | 75.82233 | 18116 ft | 185 kts | 337° |
| 2026-04-28 16:56 | 45.55087 | 75.81516 | 18116 ft | 185 kts | 337° |
| 2026-04-28 16:56 | 45.56266 | 75.80800 | 18116 ft | 185 kts | 337° |
| 2026-04-28 16:56 | 45.57446 | 75.80082 | 18116 ft | 185 kts | 337° |
| 2026-04-28 16:56 | 45.58624 | 75.79365 | 18117 ft | 185 kts | 337° |
| 2026-04-28 16:57 | 45.59803 | 75.78648 | 18117 ft | 185 kts | 337° |
| 2026-04-28 16:57 | 45.60984 | 75.77928 | 18119 ft | 185 kts | 337° |
| 2026-04-28 16:57 | 45.62163 | 75.77210 | 18120 ft | 185 kts | 337° |
| 2026-04-28 16:57 | 45.63345 | 75.76489 | 18120 ft | 185 kts | 337° |
| 2026-04-28 16:58 | 45.64522 | 75.75772 | 18119 ft | 185 kts | 337° |
| 2026-04-28 16:58 | 45.65702 | 75.75051 | 18120 ft | 185 kts | 337° |
| 2026-04-28 16:58 | 45.66881 | 75.74332 | 18119 ft | 185 kts | 337° |
| 2026-04-28 16:58 | 45.68062 | 75.73611 | 18121 ft | 185 kts | 337° |
| 2026-04-28 16:59 | 45.69242 | 75.72889 | 18122 ft | 185 kts | 337° |
| 2026-04-28 16:59 | 45.70426 | 75.72166 | 18122 ft | 185 kts | 337° |
| 2026-04-28 16:59 | 45.71610 | 75.71442 | 18122 ft | 185 kts | 337° |
| 2026-04-28 16:59 | 45.72795 | 75.70717 | 18122 ft | 185 kts | 337° |
| 2026-04-28 17:00 | 45.73584 | 75.70234 | 18122 ft | 186 kts | 337° |
| 2026-04-28 17:00 | 45.74769 | 75.69508 | 18122 ft | 185 kts | 337° |
| 2026-04-28 17:00 | 45.75951 | 75.68785 | 18125 ft | 185 kts | 337° |
| 2026-04-28 17:00 | 45.77135 | 75.68058 | 18125 ft | 186 kts | 337° |
| 2026-04-28 17:01 | 45.78715 | 75.67090 | 18125 ft | 186 kts | 337° |
| 2026-04-28 17:01 | 45.79901 | 75.66362 | 18125 ft | 186 kts | 337° |
| 2026-04-28 17:01 | 45.81086 | 75.65634 | 18126 ft | 186 kts | 337° |
| 2026-04-28 17:01 | 45.82270 | 75.64908 | 18125 ft | 186 kts | 337° |
| 2026-04-28 17:02 | 45.83456 | 75.64179 | 18128 ft | 186 kts | 337° |
| 2026-04-28 17:02 | 45.84245 | 75.63694 | 18129 ft | 186 kts | 337° |
| 2026-04-28 17:02 | 45.85429 | 75.62966 | 18128 ft | 186 kts | 337° |
| 2026-04-28 17:02 | 45.87011 | 75.61993 | 18128 ft | 186 kts | 337° |
| 2026-04-28 17:03 | 45.89383 | 75.60533 | 18128 ft | 186 kts | 337° |
| 2026-04-28 17:03 | 45.90568 | 75.59802 | 18130 ft | 186 kts | 337° |
| 2026-04-28 17:03 | 45.91758 | 75.59069 | 18131 ft | 186 kts | 337° |
| 2026-04-28 17:04 | 45.94131 | 75.57605 | 18131 ft | 186 kts | 337° |
| 2026-04-28 17:04 | 45.95318 | 75.56873 | 18131 ft | 186 kts | 337° |
| 2026-04-28 17:05 | 45.97691 | 75.55406 | 18135 ft | 186 kts | 337° |
| 2026-04-28 17:05 | 45.98880 | 75.54672 | 18134 ft | 186 kts | 337° |
| 2026-04-28 17:05 | 46.00067 | 75.53937 | 18135 ft | 186 kts | 337° |
| 2026-04-28 17:06 | 46.02441 | 75.52468 | 18138 ft | 186 kts | 337° |
| 2026-04-28 17:06 | 46.03628 | 75.51733 | 18138 ft | 186 kts | 337° |
| 2026-04-28 17:06 | 46.06005 | 75.50260 | 18138 ft | 186 kts | 337° |
| 2026-04-28 17:07 | 46.07191 | 75.49525 | 18138 ft | 186 kts | 337° |
| 2026-04-28 17:07 | 46.08376 | 75.48789 | 18138 ft | 186 kts | 337° |
| 2026-04-28 17:07 | 46.09565 | 75.48051 | 18138 ft | 186 kts | 337° |
| 2026-04-28 17:07 | 46.10748 | 75.47316 | 18139 ft | 186 kts | 337° |
| 2026-04-28 17:08 | 46.11934 | 75.46580 | 18137 ft | 186 kts | 337° |
| 2026-04-28 17:08 | 46.13116 | 75.45845 | 18138 ft | 186 kts | 337° |
| 2026-04-28 17:08 | 46.14299 | 75.45108 | 18139 ft | 186 kts | 337° |
| 2026-04-28 17:08 | 46.15483 | 75.44372 | 18138 ft | 186 kts | 337° |
| 2026-04-28 17:09 | 46.16666 | 75.43636 | 18138 ft | 186 kts | 337° |
| 2026-04-28 17:09 | 46.17848 | 75.42900 | 18137 ft | 186 kts | 337° |
| 2026-04-28 17:09 | 46.19032 | 75.42162 | 18138 ft | 185 kts | 337° |
| 2026-04-28 17:09 | 46.20213 | 75.41426 | 18139 ft | 185 kts | 337° |
| 2026-04-28 17:10 | 46.21394 | 75.40690 | 18138 ft | 185 kts | 337° |
| 2026-04-28 17:10 | 46.22575 | 75.39952 | 18138 ft | 185 kts | 337° |
| 2026-04-28 17:10 | 46.23754 | 75.39216 | 18139 ft | 185 kts | 337° |
| 2026-04-28 17:10 | 46.24934 | 75.38480 | 18138 ft | 185 kts | 337° |
| 2026-04-28 17:11 | 46.26114 | 75.37742 | 18138 ft | 185 kts | 337° |
| 2026-04-28 17:11 | 46.27292 | 75.37006 | 18138 ft | 185 kts | 337° |
| 2026-04-28 17:11 | 46.28485 | 75.36259 | 17964 ft | 187 kts | 337° |
| 2026-04-28 17:11 | 46.29668 | 75.35520 | 17698 ft | 184 kts | 337° |
| 2026-04-28 17:12 | 46.30833 | 75.34791 | 17436 ft | 182 kts | 337° |
| 2026-04-28 17:12 | 46.31603 | 75.34309 | 17257 ft | 180 kts | 337° |
| 2026-04-28 17:12 | 46.32746 | 75.33593 | 16996 ft | 179 kts | 337° |
| 2026-04-28 17:12 | 46.34260 | 75.32643 | 16651 ft | 178 kts | 338° |
| 2026-04-28 17:13 | 46.35392 | 75.31933 | 16396 ft | 177 kts | 338° |
| 2026-04-28 17:13 | 46.36517 | 75.31228 | 16142 ft | 177 kts | 338° |
| 2026-04-28 17:13 | 46.37641 | 75.30521 | 15896 ft | 176 kts | 338° |
| 2026-04-28 17:13 | 46.38760 | 75.29819 | 15651 ft | 176 kts | 338° |
| 2026-04-28 17:14 | 46.39879 | 75.29116 | 15405 ft | 175 kts | 338° |
| 2026-04-28 17:14 | 46.40621 | 75.28649 | 15243 ft | 175 kts | 338° |
| 2026-04-28 17:14 | 46.41736 | 75.27949 | 15004 ft | 174 kts | 338° |
| 2026-04-28 17:14 | 46.42847 | 75.27250 | 14764 ft | 174 kts | 338° |
| 2026-04-28 17:15 | 46.44312 | 75.26328 | 14446 ft | 172 kts | 338° |
| 2026-04-28 17:15 | 46.45408 | 75.25638 | 14214 ft | 172 kts | 338° |
| 2026-04-28 17:15 | 46.46141 | 75.25176 | 14057 ft | 172 kts | 338° |
| 2026-04-28 17:15 | 46.47595 | 75.24260 | 13726 ft | 171 kts | 339° |
| 2026-04-28 17:16 | 46.48319 | 75.23803 | 13552 ft | 170 kts | 339° |
| 2026-04-28 17:16 | 46.49766 | 75.22890 | 13206 ft | 170 kts | 340° |
| 2026-04-28 17:16 | 46.50845 | 75.22210 | 12949 ft | 169 kts | 340° |
| 2026-04-28 17:16 | 46.51919 | 75.21531 | 12685 ft | 168 kts | 340° |
| 2026-04-28 17:17 | 46.52988 | 75.20857 | 12441 ft | 168 kts | 340° |
| 2026-04-28 17:17 | 46.53699 | 75.20407 | 12273 ft | 167 kts | 340° |
| 2026-04-28 17:17 | 46.55127 | 75.19505 | 11938 ft | 168 kts | 339° |
| 2026-04-28 17:17 | 46.55840 | 75.19053 | 11772 ft | 169 kts | 339° |
| 2026-04-28 17:18 | 46.57276 | 75.18144 | 11433 ft | 170 kts | 340° |
| 2026-04-28 17:18 | 46.58366 | 75.17456 | 11220 ft | 172 kts | 341° |
| 2026-04-28 17:18 | 46.59096 | 75.16994 | 11084 ft | 173 kts | 339° |
| 2026-04-28 17:18 | 46.60567 | 75.16061 | 10795 ft | 174 kts | 340° |
| 2026-04-28 17:19 | 46.61673 | 75.15359 | 10582 ft | 174 kts | 339° |
| 2026-04-28 17:19 | 46.62784 | 75.14655 | 10367 ft | 175 kts | 339° |
| 2026-04-28 17:19 | 46.63895 | 75.13950 | 10152 ft | 175 kts | 339° |
| 2026-04-28 17:19 | 46.65006 | 75.13246 | 9933 ft | 174 kts | 339° |
| 2026-04-28 17:20 | 46.66115 | 75.12541 | 9700 ft | 174 kts | 340° |
| 2026-04-28 17:20 | 46.66855 | 75.12071 | 9546 ft | 175 kts | 340° |
| 2026-04-28 17:20 | 46.68336 | 75.11130 | 9237 ft | 174 kts | 340° |
| 2026-04-28 17:20 | 46.69076 | 75.10658 | 9084 ft | 175 kts | 341° |
| 2026-04-28 17:21 | 46.70186 | 75.09953 | 8852 ft | 175 kts | 340° |
| 2026-04-28 17:21 | 46.71666 | 75.09011 | 8569 ft | 174 kts | 340° |
| 2026-04-28 17:21 | 46.72785 | 75.08299 | 8294 ft | 177 kts | 341° |
| 2026-04-28 17:22 | 46.75062 | 75.06848 | 7759 ft | 180 kts | 342° |
| 2026-04-28 17:22 | 46.76206 | 75.06118 | 7489 ft | 179 kts | 341° |
| 2026-04-28 17:22 | 46.76963 | 75.05636 | 7315 ft | 179 kts | 341° |
| 2026-04-28 17:23 | 46.79243 | 75.04182 | 6712 ft | 181 kts | 341° |
| 2026-04-28 17:23 | 46.80787 | 75.03196 | 6254 ft | 183 kts | 341° |
| 2026-04-28 17:23 | 46.81956 | 75.02448 | 5916 ft | 184 kts | 342° |
| 2026-04-28 17:23 | 46.83073 | 75.01727 | 5885 ft | 168 kts | 343° |
| 2026-04-28 17:24 | 46.84104 | 75.01065 | 5875 ft | 156 kts | 343° |
| 2026-04-28 17:24 | 46.85071 | 75.00445 | 5872 ft | 149 kts | 344° |
| 2026-04-28 17:24 | 46.85705 | 75.00042 | 5884 ft | 152 kts | 343° |
| 2026-04-28 17:24 | 46.87008 | 74.99212 | 5876 ft | 154 kts | 343° |
| 2026-04-28 17:25 | 46.87662 | 74.98794 | 5875 ft | 154 kts | 343° |
| 2026-04-28 17:25 | 46.89614 | 74.98040 | 5882 ft | 137 kts | 30° |
| 2026-04-28 17:25 | 46.90303 | 74.98895 | 5891 ft | 130 kts | 51° |
| 2026-04-28 17:26 | 46.91087 | 75.00224 | 5898 ft | 130 kts | 54° |
| 2026-04-28 17:26 | 46.91470 | 75.00909 | 5897 ft | 132 kts | 55° |
| 2026-04-28 17:26 | 46.92245 | 75.02310 | 5900 ft | 134 kts | 55° |
| 2026-04-28 17:26 | 46.92634 | 75.03013 | 5898 ft | 134 kts | 55° |
| 2026-04-28 17:27 | 46.93214 | 75.04079 | 5895 ft | 133 kts | 60° |
| 2026-04-28 17:27 | 46.93312 | 75.05344 | 5901 ft | 132 kts | 111° |
| 2026-04-28 17:27 | 46.92234 | 75.06175 | 5896 ft | 152 kts | 181° |
| 2026-04-28 17:27 | 46.91576 | 75.05752 | 5897 ft | 161 kts | 216° |
| 2026-04-28 17:28 | 46.90595 | 75.04074 | 5899 ft | 164 kts | 225° |
| 2026-04-28 17:28 | 46.89119 | 75.01512 | 5895 ft | 166 kts | 228° |
| 2026-04-28 17:28 | 46.88641 | 75.00628 | 5893 ft | 167 kts | 229° |
| 2026-04-28 17:29 | 46.87755 | 74.98773 | 5892 ft | 168 kts | 238° |
| 2026-04-28 17:29 | 46.87387 | 74.97745 | 5747 ft | 174 kts | 241° |
| 2026-04-28 17:29 | 46.86841 | 74.96161 | 5526 ft | 173 kts | 241° |
| 2026-04-28 17:30 | 46.85810 | 74.93058 | 5064 ft | 166 kts | 242° |
| 2026-04-28 17:30 | 46.84786 | 74.89945 | 4712 ft | 170 kts | 242° |
| 2026-04-28 17:30 | 46.84274 | 74.88406 | 4526 ft | 169 kts | 242° |
| 2026-04-28 17:31 | 46.83756 | 74.86859 | 4310 ft | 170 kts | 242° |
| 2026-04-28 17:31 | 46.82575 | 74.83273 | 3763 ft | 167 kts | 242° |
| 2026-04-28 17:32 | 46.81547 | 74.80188 | 3290 ft | 169 kts | 240° |
| 2026-04-28 17:32 | 46.81011 | 74.78723 | 3273 ft | 160 kts | 240° |
| 2026-04-28 17:32 | 46.80320 | 74.77611 | 3269 ft | 139 kts | 189° |
| 2026-04-28 17:32 | 46.79756 | 74.77574 | 3273 ft | 110 kts | 141° |
| 2026-04-28 17:33 | 46.79457 | 74.78290 | 3282 ft | 79 kts | 82° |
| 2026-04-28 17:33 | 46.79389 | 74.79098 | 3276 ft | 82 kts | 88° |
| 2026-04-28 17:33 | 46.79296 | 74.80210 | 3279 ft | 83 kts | 89° |
| 2026-04-28 17:33 | 46.79290 | 74.80490 | 3279 ft | 83 kts | 83° |
| 2026-04-28 17:34 | 46.79594 | 74.81778 | 3282 ft | 83 kts | 61° |
| 2026-04-28 17:34 | 46.79899 | 74.82477 | 3291 ft | 79 kts | 59° |
| 2026-04-28 17:34 | 46.80205 | 74.83121 | 3294 ft | 76 kts | 58° |
| 2026-04-28 17:34 | 46.80409 | 74.83535 | 3291 ft | 75 kts | 58° |
| 2026-04-28 17:35 | 46.80824 | 74.84348 | 3293 ft | 77 kts | 58° |
| 2026-04-28 17:35 | 46.81043 | 74.84770 | 3291 ft | 81 kts | 58° |
| 2026-04-28 17:35 | 46.81514 | 74.85660 | 3295 ft | 85 kts | 58° |
| 2026-04-28 17:35 | 46.81754 | 74.86115 | 3294 ft | 85 kts | 58° |
| 2026-04-28 17:36 | 46.82236 | 74.87027 | 3292 ft | 85 kts | 58° |
| 2026-04-28 17:36 | 46.82475 | 74.87475 | 3257 ft | 84 kts | 58° |
| 2026-04-28 17:36 | 46.82824 | 74.88126 | 3074 ft | 78 kts | 58° |
| 2026-04-28 17:36 | 46.83250 | 74.88920 | 2850 ft | 74 kts | 59° |
| 2026-04-28 17:37 | 46.83472 | 74.89336 | 2776 ft | 80 kts | 58° |
| 2026-04-28 17:37 | 46.83816 | 74.89981 | 2728 ft | 80 kts | 58° |
| 2026-04-28 17:37 | 46.84263 | 74.90813 | 2731 ft | 79 kts | 57° |
| 2026-04-28 17:37 | 46.84490 | 74.91236 | 2697 ft | 81 kts | 56° |
| 2026-04-28 17:38 | 46.84960 | 74.92116 | 2545 ft | 85 kts | 55° |
| 2026-04-28 17:38 | 46.85321 | 74.92790 | 2451 ft | 84 kts | 54° |
| 2026-04-28 17:38 | 46.85682 | 74.93466 | 2357 ft | 85 kts | 54° |
| 2026-04-28 17:38 | 46.85927 | 74.93922 | 2287 ft | 86 kts | 57° |
| 2026-04-28 17:39 | 46.86303 | 74.94623 | 2133 ft | 90 kts | 57° |
| 2026-04-28 17:39 | 46.86827 | 74.95598 | 1944 ft | 92 kts | 55° |
| 2026-04-28 17:39 | 46.87603 | 74.97083 | 1731 ft | 93 kts | 51° |
| 2026-04-28 17:40 | 46.88009 | 74.97814 | 1664 ft | 91 kts | 52° |
| 2026-04-28 17:40 | 46.88393 | 74.98532 | 1520 ft | 88 kts | 54° |
| 2026-04-28 17:40 | 46.88765 | 74.99227 | 1401 ft | 79 kts | 53° |
| 2026-04-28 17:40 | 46.88960 | 74.99590 | 1389 ft | 47 kts | 52° |
| 2026-04-28 17:41 | 46.88934 | 74.99779 | 1397 ft | 13 kts | 144° |
| 2026-04-28 17:41 | 46.88888 | 74.99828 | 1392 ft | 11 kts | 144° |
| 2026-04-28 17:41 | 46.88790 | 74.99930 | 1396 ft | 18 kts | 143° |
| 2026-04-28 17:41 | 46.88694 | 75.00036 | 1397 ft | 17 kts | 148° |
| 2026-04-28 17:42 | 46.88620 | 75.00110 | 1394 ft | 22 kts | 143° |
| 2026-04-28 17:42 | 46.88555 | 75.00163 | 1392 ft | 13 kts | 179° |
| 2026-04-28 17:42 | 46.88536 | 75.00112 | 1395 ft | 0 kts | 271° |